sensor_id;sensor_type;location;lat;lon;timestamp;pressure;altitude;pressure_sealevel;temperature
48854;BMP280;34673;52.808;17.856;2023-03-01T00:01:18;101851.25;;;-1.43
48854;BMP280;34673;52.808;17.856;2023-03-01T00:03:45;101851.25;;;-1.43
48854;BMP280;34673;52.808;17.856;2023-03-01T00:06:13;101846.97;;;-1.44
48854;BMP280;34673;52.808;17.856;2023-03-01T00:08:41;101855.44;;;-1.43
48854;BMP280;34673;52.808;17.856;2023-03-01T00:11:23;101853.00;;;-1.42
48854;BMP280;34673;52.808;17.856;2023-03-01T00:13:53;101822.44;;;-1.57
48854;BMP280;34673;52.808;17.856;2023-03-01T00:16:24;101836.41;;;-1.37
48854;BMP280;34673;52.808;17.856;2023-03-01T00:18:54;101838.84;;;-1.38
48854;BMP280;34673;52.808;17.856;2023-03-01T00:21:21;101838.94;;;-1.37
48854;BMP280;34673;52.808;17.856;2023-03-01T00:23:52;101852.50;;;-1.36
48854;BMP280;34673;52.808;17.856;2023-03-01T00:26:20;101849.09;;;-1.37
48854;BMP280;34673;52.808;17.856;2023-03-01T00:28:48;101853.19;;;-1.39
48854;BMP280;34673;52.808;17.856;2023-03-01T00:31:18;101841.28;;;-1.40
48854;BMP280;34673;52.808;17.856;2023-03-01T00:33:46;101854.97;;;-1.38
48854;BMP280;34673;52.808;17.856;2023-03-01T00:36:14;101856.50;;;-1.40
48854;BMP280;34673;52.808;17.856;2023-03-01T00:38:44;101851.31;;;-1.41
48854;BMP280;34673;52.808;17.856;2023-03-01T00:41:16;101850.44;;;-1.42
48854;BMP280;34673;52.808;17.856;2023-03-01T00:43:44;101851.06;;;-1.46
48854;BMP280;34673;52.808;17.856;2023-03-01T00:46:19;101849.75;;;-1.52
48854;BMP280;34673;52.808;17.856;2023-03-01T00:48:48;101826.81;;;-1.67
48854;BMP280;34673;52.808;17.856;2023-03-01T00:51:19;101836.78;;;-1.57
48854;BMP280;34673;52.808;17.856;2023-03-01T00:53:47;101807.09;;;-1.71
48854;BMP280;34673;52.808;17.856;2023-03-01T00:56:16;101791.66;;;-1.88
48854;BMP280;34673;52.808;17.856;2023-03-01T00:58:44;101835.13;;;-1.70
48854;BMP280;34673;52.808;17.856;2023-03-01T01:01:22;101828.97;;;-1.73
48854;BMP280;34673;52.808;17.856;2023-03-01T01:04:03;101815.09;;;-1.79
48854;BMP280;34673;52.808;17.856;2023-03-01T01:06:36;101814.91;;;-1.82
48854;BMP280;34673;52.808;17.856;2023-03-01T01:09:07;101816.66;;;-1.81
48854;BMP280;34673;52.808;17.856;2023-03-01T01:11:35;101816.84;;;-1.77
48854;BMP280;34673;52.808;17.856;2023-03-01T01:14:05;101796.16;;;-1.84
48854;BMP280;34673;52.808;17.856;2023-03-01T01:16:32;101803.38;;;-1.76
48854;BMP280;34673;52.808;17.856;2023-03-01T01:19:01;101807.69;;;-1.75
48854;BMP280;34673;52.808;17.856;2023-03-01T01:21:28;101806.72;;;-1.77
48854;BMP280;34673;52.808;17.856;2023-03-01T01:23:56;101804.97;;;-1.79
48854;BMP280;34673;52.808;17.856;2023-03-01T01:26:26;101793.81;;;-1.81
48854;BMP280;34673;52.808;17.856;2023-03-01T01:28:55;101786.03;;;-1.84
48854;BMP280;34673;52.808;17.856;2023-03-01T01:31:23;101775.69;;;-1.87
48854;BMP280;34673;52.808;17.856;2023-03-01T01:33:52;101792.84;;;-1.83
48854;BMP280;34673;52.808;17.856;2023-03-01T01:36:20;101775.50;;;-1.90
48854;BMP280;34673;52.808;17.856;2023-03-01T01:38:48;101775.69;;;-1.87
48854;BMP280;34673;52.808;17.856;2023-03-01T01:41:15;101791.50;;;-1.77
48854;BMP280;34673;52.808;17.856;2023-03-01T01:43:48;101781.16;;;-1.81
48854;BMP280;34673;52.808;17.856;2023-03-01T01:46:30;101777.81;;;-1.80
48854;BMP280;34673;52.808;17.856;2023-03-01T01:49:02;101763.19;;;-1.84
48854;BMP280;34673;52.808;17.856;2023-03-01T01:51:37;101753.81;;;-1.85
48854;BMP280;34673;52.808;17.856;2023-03-01T01:54:33;101757.34;;;-1.83
48854;BMP280;34673;52.808;17.856;2023-03-01T01:57:07;101754.03;;;-1.82
48854;BMP280;34673;52.808;17.856;2023-03-01T01:59:36;101754.22;;;-1.79
48854;BMP280;34673;52.808;17.856;2023-03-01T02:02:05;101752.44;;;-1.80
48854;BMP280;34673;52.808;17.856;2023-03-01T02:04:32;101740.56;;;-1.81
48854;BMP280;34673;52.808;17.856;2023-03-01T02:07:21;101751.00;;;-1.76
48854;BMP280;34673;52.808;17.856;2023-03-01T02:09:51;101742.50;;;-1.76
48854;BMP280;34673;52.808;17.856;2023-03-01T02:12:24;101728.25;;;-1.88
48854;BMP280;34673;52.808;17.856;2023-03-01T02:14:51;101733.53;;;-1.85
48854;BMP280;34673;52.808;17.856;2023-03-01T02:17:19;101743.47;;;-1.74
48854;BMP280;34673;52.808;17.856;2023-03-01T02:20:07;101745.16;;;-1.75
48854;BMP280;34673;52.808;17.856;2023-03-01T02:22:38;101739.69;;;-1.81
48854;BMP280;34673;52.808;17.856;2023-03-01T02:25:19;101742.50;;;-1.76
48854;BMP280;34673;52.808;17.856;2023-03-01T02:28:38;101740.75;;;-1.77
48854;BMP280;34673;52.808;17.856;2023-03-01T02:31:07;101745.53;;;-1.82
48854;BMP280;34673;52.808;17.856;2023-03-01T02:33:55;101738.81;;;-1.82
48854;BMP280;34673;52.808;17.856;2023-03-01T02:36:29;101736.06;;;-1.85
48854;BMP280;34673;52.808;17.856;2023-03-01T02:38:59;101738.53;;;-1.86
48854;BMP280;34673;52.808;17.856;2023-03-01T02:41:30;101733.53;;;-1.85
48854;BMP280;34673;52.808;17.856;2023-03-01T02:43:59;101727.59;;;-1.85
48854;BMP280;34673;52.808;17.856;2023-03-01T02:46:26;101727.00;;;-1.81
48854;BMP280;34673;52.808;17.856;2023-03-01T02:48:57;101738.34;;;-1.76
48854;BMP280;34673;52.808;17.856;2023-03-01T02:54:15;101740.94;;;-1.74
48854;BMP280;34673;52.808;17.856;2023-03-01T02:56:45;101741.75;;;-1.75
48854;BMP280;34673;52.808;17.856;2023-03-01T02:59:20;101743.28;;;-1.77
48854;BMP280;34673;52.808;17.856;2023-03-01T03:01:48;101744.47;;;-1.86
48854;BMP280;34673;52.808;17.856;2023-03-01T03:04:18;101741.13;;;-1.85
48854;BMP280;34673;52.808;17.856;2023-03-01T03:06:49;101743.09;;;-1.81
48854;BMP280;34673;52.808;17.856;2023-03-01T03:09:17;101747.19;;;-1.83
48854;BMP280;34673;52.808;17.856;2023-03-01T03:11:45;101753.13;;;-1.82
48854;BMP280;34673;52.808;17.856;2023-03-01T03:14:15;101735.88;;;-1.88
48854;BMP280;34673;52.808;17.856;2023-03-01T03:16:47;101748.16;;;-1.81
48854;BMP280;34673;52.808;17.856;2023-03-01T03:19:16;101742.13;;;-1.83
48854;BMP280;34673;52.808;17.856;2023-03-01T03:21:43;101737.72;;;-1.85
48854;BMP280;34673;52.808;17.856;2023-03-01T03:24:11;101740.84;;;-1.89
48854;BMP280;34673;52.808;17.856;2023-03-01T03:26:38;101743.09;;;-1.94
48854;BMP280;34673;52.808;17.856;2023-03-01T03:29:05;101739.56;;;-1.96
48854;BMP280;34673;52.808;17.856;2023-03-01T03:31:33;101734.31;;;-1.99
48854;BMP280;34673;52.808;17.856;2023-03-01T03:34:00;101718.69;;;-2.05
48854;BMP280;34673;52.808;17.856;2023-03-01T03:36:28;101714.78;;;-2.13
48854;BMP280;34673;52.808;17.856;2023-03-01T03:38:55;101724.94;;;-2.13
48854;BMP280;34673;52.808;17.856;2023-03-01T03:41:22;101721.41;;;-2.15
48854;BMP280;34673;52.808;17.856;2023-03-01T03:43:49;101728.81;;;-2.18
48854;BMP280;34673;52.808;17.856;2023-03-01T03:46:16;101728.03;;;-2.17
48854;BMP280;34673;52.808;17.856;2023-03-01T03:48:45;101721.03;;;-2.21
48854;BMP280;34673;52.808;17.856;2023-03-01T03:51:16;101722.09;;;-2.18
48854;BMP280;34673;52.808;17.856;2023-03-01T03:53:45;101720.44;;;-2.17
48854;BMP280;34673;52.808;17.856;2023-03-01T03:56:12;101714.41;;;-2.19
48854;BMP280;34673;52.808;17.856;2023-03-01T03:58:39;101702.50;;;-2.20
48854;BMP280;34673;52.808;17.856;2023-03-01T04:01:07;101704.16;;;-2.21
48854;BMP280;34673;52.808;17.856;2023-03-01T04:03:34;101697.63;;;-2.17
48854;BMP280;34673;52.808;17.856;2023-03-01T04:06:02;101708.16;;;-2.11
48854;BMP280;34673;52.808;17.856;2023-03-01T04:08:31;101701.75;;;-2.06
48854;BMP280;34673;52.808;17.856;2023-03-01T04:11:01;101695.09;;;-2.04
48854;BMP280;34673;52.808;17.856;2023-03-01T04:13:48;101696.75;;;-2.05
48854;BMP280;34673;52.808;17.856;2023-03-01T04:16:16;101697.63;;;-2.04
48854;BMP280;34673;52.808;17.856;2023-03-01T04:18:44;101690.69;;;-2.07
48854;BMP280;34673;52.808;17.856;2023-03-01T04:21:12;101676.16;;;-2.09
48854;BMP280;34673;52.808;17.856;2023-03-01T04:23:40;101690.69;;;-2.07
48854;BMP280;34673;52.808;17.856;2023-03-01T04:26:07;101684.56;;;-2.10
48854;BMP280;34673;52.808;17.856;2023-03-01T04:28:37;101689.81;;;-2.07
48854;BMP280;34673;52.808;17.856;2023-03-01T04:31:09;101703.69;;;-2.02
48854;BMP280;34673;52.808;17.856;2023-03-01T04:33:51;101695.09;;;-2.04
48854;BMP280;34673;52.808;17.856;2023-03-01T04:36:23;101692.56;;;-2.04
48854;BMP280;34673;52.808;17.856;2023-03-01T04:38:51;101686.72;;;-2.03
48854;BMP280;34673;52.808;17.856;2023-03-01T04:41:20;101688.28;;;-2.05
48854;BMP280;34673;52.808;17.856;2023-03-01T04:43:48;101692.00;;;-2.00
48854;BMP280;34673;52.808;17.856;2023-03-01T04:46:18;101692.19;;;-1.97
48854;BMP280;34673;52.808;17.856;2023-03-01T04:48:45;101685.13;;;-2.01
48854;BMP280;34673;52.808;17.856;2023-03-01T04:51:14;101697.25;;;-1.97
48854;BMP280;34673;52.808;17.856;2023-03-01T04:53:43;101686.13;;;-1.99
48854;BMP280;34673;52.808;17.856;2023-03-01T04:56:11;101691.13;;;-2.01
48854;BMP280;34673;52.808;17.856;2023-03-01T04:58:41;101686.81;;;-2.02
48854;BMP280;34673;52.808;17.856;2023-03-01T05:01:13;101688.66;;;-1.99
48854;BMP280;34673;52.808;17.856;2023-03-01T05:03:48;101685.38;;;-1.98
48854;BMP280;34673;52.808;17.856;2023-03-01T05:06:16;101690.44;;;-1.98
48854;BMP280;34673;52.808;17.856;2023-03-01T05:08:44;101668.00;;;-2.05
48854;BMP280;34673;52.808;17.856;2023-03-01T05:11:12;101682.03;;;-1.97
48854;BMP280;34673;52.808;17.856;2023-03-01T05:13:40;101671.03;;;-1.97
48854;BMP280;34673;52.808;17.856;2023-03-01T05:16:08;101665.09;;;-1.98
48854;BMP280;34673;52.808;17.856;2023-03-01T05:18:39;101670.16;;;-1.98
48854;BMP280;34673;52.808;17.856;2023-03-01T05:21:12;101683.78;;;-1.96
48854;BMP280;34673;52.808;17.856;2023-03-01T05:23:43;101683.97;;;-1.93
48854;BMP280;34673;52.808;17.856;2023-03-01T05:26:10;101660.19;;;-1.95
48854;BMP280;34673;52.808;17.856;2023-03-01T05:28:54;101674.25;;;-1.87
48854;BMP280;34673;52.808;17.856;2023-03-01T05:31:26;101670.91;;;-1.86
48854;BMP280;34673;52.808;17.856;2023-03-01T05:33:53;101653.34;;;-1.96
48854;BMP280;34673;52.808;17.856;2023-03-01T05:36:20;101669.16;;;-1.87
48854;BMP280;34673;52.808;17.856;2023-03-01T05:38:48;101674.25;;;-1.87
48854;BMP280;34673;52.808;17.856;2023-03-01T05:41:15;101677.34;;;-1.91
48854;BMP280;34673;52.808;17.856;2023-03-01T05:43:43;101689.66;;;-1.84
48854;BMP280;34673;52.808;17.856;2023-03-01T05:46:12;101692.94;;;-1.85
48854;BMP280;34673;52.808;17.856;2023-03-01T05:48:40;101688.78;;;-1.84
48854;BMP280;34673;52.808;17.856;2023-03-01T05:51:07;101687.88;;;-1.85
48854;BMP280;34673;52.808;17.856;2023-03-01T05:53:35;101692.25;;;-1.82
48854;BMP280;34673;52.808;17.856;2023-03-01T05:56:05;101683.03;;;-1.82
48854;BMP280;34673;52.808;17.856;2023-03-01T05:58:33;101682.34;;;-1.79
48854;BMP280;34673;52.808;17.856;2023-03-01T06:01:00;101666.03;;;-1.83
48854;BMP280;34673;52.808;17.856;2023-03-01T06:03:27;101678.22;;;-1.77
48854;BMP280;34673;52.808;17.856;2023-03-01T06:05:58;101671.47;;;-1.76
48854;BMP280;34673;52.808;17.856;2023-03-01T06:08:25;101674.22;;;-1.73
48854;BMP280;34673;52.808;17.856;2023-03-01T06:10:54;101678.50;;;-1.72
48854;BMP280;34673;52.808;17.856;2023-03-01T06:13:22;101682.03;;;-1.70
48854;BMP280;34673;52.808;17.856;2023-03-01T06:15:50;101693.25;;;-1.67
48854;BMP280;34673;52.808;17.856;2023-03-01T06:18:17;101691.00;;;-1.62
48854;BMP280;34673;52.808;17.856;2023-03-01T06:20:45;101691.00;;;-1.62
48854;BMP280;34673;52.808;17.856;2023-03-01T06:23:12;101691.19;;;-1.59
48854;BMP280;34673;52.808;17.856;2023-03-01T06:25:39;101687.78;;;-1.60
48854;BMP280;34673;52.808;17.856;2023-03-01T06:28:06;101687.84;;;-1.58
48854;BMP280;34673;52.808;17.856;2023-03-01T06:30:34;101693.13;;;-1.55
48854;BMP280;34673;52.808;17.856;2023-03-01T06:33:01;101690.69;;;-1.53
48854;BMP280;34673;52.808;17.856;2023-03-01T06:35:30;101690.06;;;-1.49
48854;BMP280;34673;52.808;17.856;2023-03-01T06:37:59;101690.38;;;-1.45
48854;BMP280;34673;52.808;17.856;2023-03-01T06:40:27;101690.56;;;-1.42
48854;BMP280;34673;52.808;17.856;2023-03-01T06:42:54;101699.34;;;-1.37
48854;BMP280;34673;52.808;17.856;2023-03-01T06:45:21;101690.97;;;-1.36
48854;BMP280;34673;52.808;17.856;2023-03-01T06:47:48;101698.16;;;-1.28
48854;BMP280;34673;52.808;17.856;2023-03-01T06:50:17;101696.47;;;-1.28
48854;BMP280;34673;52.808;17.856;2023-03-01T06:52:44;101696.97;;;-1.20
48854;BMP280;34673;52.808;17.856;2023-03-01T06:55:13;101697.13;;;-1.17
48854;BMP280;34673;52.808;17.856;2023-03-01T06:57:40;101688.94;;;-1.13
48854;BMP280;34673;52.808;17.856;2023-03-01T07:00:08;101694.38;;;-1.07
48854;BMP280;34673;52.808;17.856;2023-03-01T07:02:35;101682.66;;;-1.05
48854;BMP280;34673;52.808;17.856;2023-03-01T07:05:02;101685.66;;;-0.97
48854;BMP280;34673;52.808;17.856;2023-03-01T07:07:30;101693.53;;;-0.93
48854;BMP280;34673;52.808;17.856;2023-03-01T07:09:57;101690.41;;;-0.88
48854;BMP280;34673;52.808;17.856;2023-03-01T07:12:24;101680.53;;;-0.84
48854;BMP280;34673;52.808;17.856;2023-03-01T07:14:51;101687.47;;;-0.81
48854;BMP280;34673;52.808;17.856;2023-03-01T07:17:18;101693.06;;;-0.72
48854;BMP280;34673;52.808;17.856;2023-03-01T07:19:45;101693.41;;;-0.66
48854;BMP280;34673;52.808;17.856;2023-03-01T07:22:12;101695.38;;;-0.62
48854;BMP280;34673;52.808;17.856;2023-03-01T07:24:41;101692.38;;;-0.55
48854;BMP280;34673;52.808;17.856;2023-03-01T07:27:08;101684.16;;;-0.51
48854;BMP280;34673;52.808;17.856;2023-03-01T07:29:36;101689.94;;;-0.38
48854;BMP280;34673;52.808;17.856;2023-03-01T07:32:04;101671.53;;;-0.34
48854;BMP280;34673;52.808;17.856;2023-03-01T07:34:32;101685.91;;;-0.20
48854;BMP280;34673;52.808;17.856;2023-03-01T07:36:59;101682.84;;;-0.14
48854;BMP280;34673;52.808;17.856;2023-03-01T07:39:26;101676.63;;;-0.05
48854;BMP280;34673;52.808;17.856;2023-03-01T07:41:53;101681.88;;;-0.02
48854;BMP280;34673;52.808;17.856;2023-03-01T07:44:21;101678.63;;;0.01
48854;BMP280;34673;52.808;17.856;2023-03-01T07:46:49;101672.03;;;0.05
48854;BMP280;34673;52.808;17.856;2023-03-01T07:49:16;101657.56;;;0.04
48854;BMP280;34673;52.808;17.856;2023-03-01T07:51:43;101663.97;;;0.12
48854;BMP280;34673;52.808;17.856;2023-03-01T07:54:10;101670.94;;;0.16
48854;BMP280;34673;52.808;17.856;2023-03-01T07:56:37;101658.88;;;0.12
48854;BMP280;34673;52.808;17.856;2023-03-01T07:59:04;101657.47;;;0.17
48854;BMP280;34673;52.808;17.856;2023-03-01T08:01:31;101668.13;;;0.26
48854;BMP280;34673;52.808;17.856;2023-03-01T08:03:58;101654.78;;;0.30
48854;BMP280;34673;52.808;17.856;2023-03-01T08:06:26;101658.94;;;0.44
48854;BMP280;34673;52.808;17.856;2023-03-01T08:08:53;101651.00;;;0.55
48854;BMP280;34673;52.808;17.856;2023-03-01T08:11:25;101653.41;;;0.68
48854;BMP280;34673;52.808;17.856;2023-03-01T08:13:52;101648.94;;;0.80
48854;BMP280;34673;52.808;17.856;2023-03-01T08:16:20;101647.84;;;0.92
48854;BMP280;34673;52.808;17.856;2023-03-01T08:18:47;101643.53;;;1.07
48854;BMP280;34673;52.808;17.856;2023-03-01T08:21:16;101649.44;;;1.22
48854;BMP280;34673;52.808;17.856;2023-03-01T08:23:44;101649.16;;;1.34
48854;BMP280;34673;52.808;17.856;2023-03-01T08:26:14;101647.28;;;1.48
48854;BMP280;34673;52.808;17.856;2023-03-01T08:28:42;101646.28;;;1.62
48854;BMP280;34673;52.808;17.856;2023-03-01T08:31:14;101640.03;;;1.73
48854;BMP280;34673;52.808;17.856;2023-03-01T08:33:41;101647.63;;;1.90
48854;BMP280;34673;52.808;17.856;2023-03-01T08:36:09;101644.69;;;2.00
48854;BMP280;34673;52.808;17.856;2023-03-01T08:38:36;101645.16;;;2.09
48854;BMP280;34673;52.808;17.856;2023-03-01T08:41:03;101638.19;;;2.25
48854;BMP280;34673;52.808;17.856;2023-03-01T08:43:30;101636.50;;;2.43
48854;BMP280;34673;52.808;17.856;2023-03-01T08:45:57;101635.44;;;2.57
48854;BMP280;34673;52.808;17.856;2023-03-01T08:48:27;101633.34;;;2.68
48854;BMP280;34673;52.808;17.856;2023-03-01T08:50:54;101622.66;;;2.77
48854;BMP280;34673;52.808;17.856;2023-03-01T08:53:21;101633.31;;;2.86
48854;BMP280;34673;52.808;17.856;2023-03-01T08:55:49;101631.94;;;2.94
48854;BMP280;34673;52.808;17.856;2023-03-01T08:58:16;101630.47;;;2.99
48854;BMP280;34673;52.808;17.856;2023-03-01T09:00:43;101634.63;;;3.17
48854;BMP280;34673;52.808;17.856;2023-03-01T09:03:11;101633.47;;;3.29
48854;BMP280;34673;52.808;17.856;2023-03-01T09:05:38;101634.91;;;3.44
48854;BMP280;34673;52.808;17.856;2023-03-01T09:08:05;101629.41;;;3.55
48854;BMP280;34673;52.808;17.856;2023-03-01T09:10:37;101628.72;;;3.60
48854;BMP280;34673;52.808;17.856;2023-03-01T09:13:06;101631.53;;;3.66
48854;BMP280;34673;52.808;17.856;2023-03-01T09:15:33;101627.28;;;3.66
48854;BMP280;34673;52.808;17.856;2023-03-01T09:18:00;101628.19;;;3.67
48854;BMP280;34673;52.808;17.856;2023-03-01T09:20:28;101625.03;;;3.74
48854;BMP280;34673;52.808;17.856;2023-03-01T09:22:55;101624.72;;;3.87
48854;BMP280;34673;52.808;17.856;2023-03-01T09:25:23;101627.50;;;3.93
48854;BMP280;34673;52.808;17.856;2023-03-01T09:27:51;101626.72;;;3.94
48854;BMP280;34673;52.808;17.856;2023-03-01T09:30:20;101624.28;;;3.97
48854;BMP280;34673;52.808;17.856;2023-03-01T09:32:47;101620.09;;;3.99
48854;BMP280;34673;52.808;17.856;2023-03-01T09:35:14;101639.97;;;4.07
48854;BMP280;34673;52.808;17.856;2023-03-01T09:37:41;101630.56;;;4.06
48854;BMP280;34673;52.808;17.856;2023-03-01T09:40:16;101637.53;;;4.10
48854;BMP280;34673;52.808;17.856;2023-03-01T09:43:08;101637.41;;;4.07
48854;BMP280;34673;52.808;17.856;2023-03-01T09:45:43;101636.84;;;4.14
48854;BMP280;34673;52.808;17.856;2023-03-01T09:48:18;101641.22;;;4.16
48854;BMP280;34673;52.808;17.856;2023-03-01T09:50:49;101636.13;;;4.18
48854;BMP280;34673;52.808;17.856;2023-03-01T09:53:20;101631.97;;;4.20
48854;BMP280;34673;52.808;17.856;2023-03-01T09:56:00;101626.16;;;4.24
48854;BMP280;34673;52.808;17.856;2023-03-01T09:58:48;101623.81;;;4.30
48854;BMP280;34673;52.808;17.856;2023-03-01T10:09:33;101626.91;;;4.44
48854;BMP280;34673;52.808;17.856;2023-03-01T10:12:02;101618.56;;;4.50
48854;BMP280;34673;52.808;17.856;2023-03-01T10:17:27;101622.16;;;4.55
48854;BMP280;34673;52.808;17.856;2023-03-01T10:20:14;101614.47;;;4.55
48854;BMP280;34673;52.808;17.856;2023-03-01T10:22:42;101607.63;;;4.54
48854;BMP280;34673;52.808;17.856;2023-03-01T10:25:14;101590.38;;;4.50
48854;BMP280;34673;52.808;17.856;2023-03-01T10:27:51;101599.22;;;4.58
48854;BMP280;34673;52.808;17.856;2023-03-01T10:30:35;101599.31;;;4.61
48854;BMP280;34673;52.808;17.856;2023-03-01T10:33:16;101591.59;;;4.59
48854;BMP280;34673;52.808;17.856;2023-03-01T10:35:44;101606.34;;;4.66
48854;BMP280;34673;52.808;17.856;2023-03-01T10:38:13;101594.66;;;4.73
48854;BMP280;34673;52.808;17.856;2023-03-01T10:41:06;101603.28;;;4.75
48854;BMP280;34673;52.808;17.856;2023-03-01T10:43:46;101591.97;;;4.70
48854;BMP280;34673;52.808;17.856;2023-03-01T10:46:35;101601.72;;;4.80
48854;BMP280;34673;52.808;17.856;2023-03-01T10:49:20;101603.53;;;4.83
48854;BMP280;34673;52.808;17.856;2023-03-01T10:51:52;101600.28;;;4.88
48854;BMP280;34673;52.808;17.856;2023-03-01T10:54:32;101590.97;;;4.91
48854;BMP280;34673;52.808;17.856;2023-03-01T10:57:01;101588.50;;;4.94
48854;BMP280;34673;52.808;17.856;2023-03-01T10:59:35;101581.81;;;4.97
48854;BMP280;34673;52.808;17.856;2023-03-01T11:02:16;101586.28;;;5.03
48854;BMP280;34673;52.808;17.856;2023-03-01T11:05:00;101585.63;;;5.08
48854;BMP280;34673;52.808;17.856;2023-03-01T11:07:28;101572.03;;;5.11
48854;BMP280;34673;52.808;17.856;2023-03-01T11:09:56;101561.09;;;5.17
48854;BMP280;34673;52.808;17.856;2023-03-01T11:12:23;101553.56;;;5.21
48854;BMP280;34673;52.808;17.856;2023-03-01T11:14:53;101550.34;;;5.28
48854;BMP280;34673;52.808;17.856;2023-03-01T11:17:25;101555.06;;;5.42
48854;BMP280;34673;52.808;17.856;2023-03-01T11:22:43;101537.50;;;5.54
48854;BMP280;34673;52.808;17.856;2023-03-01T11:25:13;101546.41;;;5.65
48854;BMP280;34673;52.808;17.856;2023-03-01T11:27:43;101535.38;;;5.68
48854;BMP280;34673;52.808;17.856;2023-03-01T11:30:38;101532.91;;;5.72
48854;BMP280;34673;52.808;17.856;2023-03-01T11:33:24;101522.88;;;5.78
48854;BMP280;34673;52.808;17.856;2023-03-01T11:36:10;101523.97;;;5.87
48854;BMP280;34673;52.808;17.856;2023-03-01T11:38:40;101521.41;;;5.87
48854;BMP280;34673;52.808;17.856;2023-03-01T11:41:30;101528.25;;;5.88
48854;BMP280;34673;52.808;17.856;2023-03-01T11:44:21;101521.31;;;5.84
48854;BMP280;34673;52.808;17.856;2023-03-01T11:46:59;101520.56;;;5.88
48854;BMP280;34673;52.808;17.856;2023-03-01T11:55:05;101514.50;;;5.86
48854;BMP280;34673;52.808;17.856;2023-03-01T12:17:30;101499.84;;;6.10
48854;BMP280;34673;52.808;17.856;2023-03-01T12:20:17;101499.06;;;6.13
48854;BMP280;34673;52.808;17.856;2023-03-01T12:25:53;101481.81;;;6.09
48854;BMP280;34673;52.808;17.856;2023-03-01T12:34:51;101483.13;;;6.25
48854;BMP280;34673;52.808;17.856;2023-03-01T12:43:13;101481.56;;;6.30
48854;BMP280;34673;52.808;17.856;2023-03-01T12:49:14;101475.59;;;6.31
48854;BMP280;34673;52.808;17.856;2023-03-01T12:51:59;101481.66;;;6.33
48854;BMP280;34673;52.808;17.856;2023-03-01T12:54:30;101477.41;;;6.35
48854;BMP280;34673;52.808;17.856;2023-03-01T12:57:48;101484.94;;;6.29
48854;BMP280;34673;52.808;17.856;2023-03-01T13:03:04;101483.22;;;6.28
48854;BMP280;34673;52.808;17.856;2023-03-01T13:06:11;101489.28;;;6.30
48854;BMP280;34673;52.808;17.856;2023-03-01T13:09:04;101485.88;;;6.32
48854;BMP280;34673;52.808;17.856;2023-03-01T13:11:23;101485.03;;;6.32
48854;BMP280;34673;52.808;17.856;2023-03-01T13:13:50;101478.06;;;6.28
48854;BMP280;34673;52.808;17.856;2023-03-01T13:19:17;101479.81;;;6.29
48854;BMP280;34673;52.808;17.856;2023-03-01T13:21:46;101473.88;;;6.31
48854;BMP280;34673;52.808;17.856;2023-03-01T13:29:47;101461.94;;;6.33
48854;BMP280;34673;52.808;17.856;2023-03-01T13:32:30;101458.53;;;6.34
48854;BMP280;34673;52.808;17.856;2023-03-01T13:37:38;101452.53;;;6.34
48854;BMP280;34673;52.808;17.856;2023-03-01T13:42:55;101458.59;;;6.36
48854;BMP280;34673;52.808;17.856;2023-03-01T13:48:02;101446.59;;;6.36
48854;BMP280;34673;52.808;17.856;2023-03-01T13:50:38;101450.03;;;6.35
48854;BMP280;34673;52.808;17.856;2023-03-01T13:53:13;101454.25;;;6.33
48854;BMP280;34673;52.808;17.856;2023-03-01T13:55:46;101452.53;;;6.34
48854;BMP280;34673;52.808;17.856;2023-03-01T13:58:30;101450.81;;;6.33
48854;BMP280;34673;52.808;17.856;2023-03-01T14:01:06;101449.91;;;6.32
48854;BMP280;34673;52.808;17.856;2023-03-01T14:03:41;101445.59;;;6.30
48854;BMP280;34673;52.808;17.856;2023-03-01T14:06:14;101446.47;;;6.30
48854;BMP280;34673;52.808;17.856;2023-03-01T14:08:49;101435.38;;;6.33
48854;BMP280;34673;52.808;17.856;2023-03-01T14:11:43;101435.38;;;6.33
48854;BMP280;34673;52.808;17.856;2023-03-01T14:20:07;101428.34;;;6.26
48854;BMP280;34673;52.808;17.856;2023-03-01T14:22:36;101417.97;;;6.22
48854;BMP280;34673;52.808;17.856;2023-03-01T14:25:36;101412.75;;;6.19
48854;BMP280;34673;52.808;17.856;2023-03-01T14:30:44;101405.88;;;6.18
48854;BMP280;34673;52.808;17.856;2023-03-01T14:33:32;101406.66;;;6.16
48854;BMP280;34673;52.808;17.856;2023-03-01T14:36:09;101396.22;;;6.10
48854;BMP280;34673;52.808;17.856;2023-03-01T14:41:17;101402.22;;;6.10
48854;BMP280;34673;52.808;17.856;2023-03-01T14:43:47;101409.91;;;6.09
48854;BMP280;34673;52.808;17.856;2023-03-01T14:46:24;101398.56;;;6.02
48854;BMP280;34673;52.808;17.856;2023-03-01T14:48:56;101402.94;;;6.05
48854;BMP280;34673;52.808;17.856;2023-03-01T14:51:24;101364.69;;;5.84
48854;BMP280;34673;52.808;17.856;2023-03-01T14:53:52;101406.34;;;6.05
48854;BMP280;34673;52.808;17.856;2023-03-01T14:56:20;101401.19;;;6.04
48854;BMP280;34673;52.808;17.856;2023-03-01T14:58:51;101386.41;;;5.95
48854;BMP280;34673;52.808;17.856;2023-03-01T15:01:20;101391.63;;;5.98
48854;BMP280;34673;52.808;17.856;2023-03-01T15:03:49;101395.84;;;5.96
48854;BMP280;34673;52.808;17.856;2023-03-01T15:06:21;101395.81;;;5.94
48854;BMP280;34673;52.808;17.856;2023-03-01T15:08:51;101382.72;;;5.87
48854;BMP280;34673;52.808;17.856;2023-03-01T15:11:20;101399.88;;;5.88
48854;BMP280;34673;52.808;17.856;2023-03-01T15:13:51;101399.88;;;5.88
48854;BMP280;34673;52.808;17.856;2023-03-01T15:18:58;101398.06;;;5.84
48854;BMP280;34673;52.808;17.856;2023-03-01T15:21:38;101391.09;;;5.80
48854;BMP280;34673;52.808;17.856;2023-03-01T15:24:06;101399.63;;;5.78
48854;BMP280;34673;52.808;17.856;2023-03-01T15:29:20;101392.56;;;5.71
48854;BMP280;34673;52.808;17.856;2023-03-01T15:31:58;101395.00;;;5.67
48854;BMP280;34673;52.808;17.856;2023-03-01T15:34:29;101390.63;;;5.64
48854;BMP280;34673;52.808;17.856;2023-03-01T15:36:58;101385.41;;;5.60
48854;BMP280;34673;52.808;17.856;2023-03-01T15:39:37;101388.66;;;5.54
48854;BMP280;34673;52.808;17.856;2023-03-01T15:42:07;101381.75;;;5.53
48854;BMP280;34673;52.808;17.856;2023-03-01T15:44:37;101380.84;;;5.51
48854;BMP280;34673;52.808;17.856;2023-03-01T15:47:25;101378.19;;;5.48
48854;BMP280;34673;52.808;17.856;2023-03-01T15:49:54;101379.88;;;5.46